createdAt,value
2019-01-20T00:00:41.203Z,40.17
2019-01-20T00:03:11.779Z,43.03
2019-01-20T00:05:42.055Z,36.30
2019-01-20T00:08:12.739Z,56.23
2019-01-20T00:10:43.056Z,44.27
2019-01-20T00:13:13.000Z,53.27
2019-01-20T00:15:44.654Z,53.27
2019-01-20T00:18:14.863Z,50.53
2019-01-20T00:20:45.489Z,45.83
2019-01-20T00:23:15.441Z,40.57
2019-01-20T00:25:45.957Z,44.17
2019-01-20T00:28:16.539Z,38.03
2019-01-20T00:30:47.167Z,38.00
2019-01-20T00:33:17.053Z,30.47
2019-01-20T00:35:47.613Z,42.80
2019-01-20T00:38:17.516Z,45.37
2019-01-20T00:40:47.731Z,41.90
2019-01-20T00:43:18.299Z,41.03
2019-01-20T00:45:48.173Z,44.87
2019-01-20T00:48:18.730Z,41.67
2019-01-20T00:50:49.223Z,44.93
2019-01-20T00:53:19.456Z,45.40
2019-01-20T00:55:49.647Z,47.80
2019-01-20T00:58:19.866Z,45.80
2019-01-20T01:00:51.661Z,45.50
2019-01-20T01:03:22.321Z,46.13
2019-01-20T01:05:52.787Z,43.00
2019-01-20T01:08:23.125Z,39.13
2019-01-20T01:10:53.377Z,42.10
2019-01-20T01:13:24.185Z,35.80
2019-01-20T01:15:54.846Z,41.33
2019-01-20T01:18:25.499Z,36.23
2019-01-20T01:20:55.691Z,39.57
2019-01-20T01:23:25.893Z,42.73
2019-01-20T01:25:56.542Z,39.17
2019-01-20T01:28:27.082Z,37.87
2019-01-20T01:30:57.695Z,41.53
2019-01-20T01:33:28.022Z,34.80
2019-01-20T01:35:58.603Z,37.90
2019-01-20T01:38:28.807Z,40.77
2019-01-20T01:40:59.002Z,47.20
2019-01-20T01:43:29.535Z,41.70
2019-01-20T01:46:00.223Z,41.37
2019-01-20T01:48:30.708Z,41.43
2019-01-20T01:51:01.043Z,43.17
2019-01-20T01:53:31.565Z,43.67
2019-01-20T01:56:01.933Z,46.70
2019-01-20T01:58:32.487Z,42.10
2019-01-20T02:01:02.799Z,43.53
2019-01-20T02:03:33.282Z,44.90
2019-01-20T02:06:03.659Z,50.73
2019-01-20T02:08:33.877Z,54.13
2019-01-20T02:11:04.691Z,44.87
2019-01-20T02:13:35.191Z,43.87
2019-01-20T02:16:05.851Z,43.47
2019-01-20T02:18:36.445Z,49.33
2019-01-20T02:21:06.937Z,52.67
2019-01-20T02:23:37.273Z,46.30
2019-01-20T02:26:07.499Z,53.27
2019-01-20T02:28:37.793Z,68.83
2019-01-20T02:31:08.433Z,71.53
2019-01-20T02:33:39.062Z,60.93
2019-01-20T02:36:09.667Z,60.40
2019-01-20T02:38:40.352Z,70.23
2019-01-20T02:41:10.845Z,61.50
2019-01-20T02:43:41.319Z,78.90
2019-01-20T02:46:11.791Z,86.20
2019-01-20T02:48:42.069Z,57.20
2019-01-20T02:51:12.675Z,47.87
2019-01-20T02:53:43.321Z,45.13
2019-01-20T02:56:13.819Z,48.13
2019-01-20T02:58:44.113Z,45.00
2019-01-20T03:01:14.762Z,45.80
2019-01-20T03:03:45.343Z,44.83
2019-01-20T03:06:15.965Z,45.33
2019-01-20T03:08:46.507Z,48.80
2019-01-20T03:11:35.687Z,54.00
2019-01-20T03:14:06.519Z,41.93
2019-01-20T03:16:37.140Z,33.83
2019-01-20T03:19:07.379Z,42.43
2019-01-20T03:21:37.563Z,44.67
2019-01-20T03:24:08.107Z,41.30
2019-01-20T03:26:38.377Z,39.20
2019-01-20T03:29:08.601Z,43.30
2019-01-20T03:31:38.824Z,42.00
2019-01-20T03:34:08.337Z,39.87
2019-01-20T03:36:38.843Z,40.60
2019-01-20T03:39:09.097Z,43.87
2019-01-20T03:41:39.321Z,40.10
2019-01-20T03:44:09.920Z,44.93
2019-01-20T03:46:40.546Z,43.40
2019-01-20T03:49:11.087Z,46.93
2019-01-20T03:51:41.345Z,48.60
2019-01-20T03:54:11.991Z,44.27
2019-01-20T03:56:42.097Z,46.80
2019-01-20T03:59:12.277Z,50.33
2019-01-20T04:01:42.643Z,46.23
2019-01-20T04:04:12.870Z,49.07
2019-01-20T04:06:43.384Z,43.67
2019-01-20T04:09:13.576Z,38.83
2019-01-20T04:11:45.903Z,44.23
2019-01-20T04:14:16.406Z,32.27
2019-01-20T04:16:47.059Z,44.20
2019-01-20T04:19:17.284Z,40.43
2019-01-20T04:21:47.799Z,51.20
2019-01-20T04:24:18.299Z,44.93
2019-01-20T04:26:48.865Z,44.43
2019-01-20T04:29:19.104Z,39.97
2019-01-20T04:31:49.604Z,44.20
2019-01-20T04:34:19.868Z,46.33
2019-01-20T04:36:50.190Z,45.43
2019-01-20T04:39:20.773Z,38.10
2019-01-20T04:41:51.432Z,45.10
2019-01-20T04:44:21.943Z,42.73
2019-01-20T04:46:52.474Z,45.20
2019-01-20T04:49:23.017Z,44.43
2019-01-20T04:51:53.278Z,44.87
2019-01-20T04:54:23.878Z,44.27
2019-01-20T04:56:54.419Z,47.73
2019-01-20T04:59:25.048Z,46.20
2019-01-20T05:01:55.559Z,53.97
2019-01-20T05:04:26.167Z,51.50
2019-01-20T05:06:56.672Z,56.67
2019-01-20T05:09:26.897Z,57.77
2019-01-20T05:11:57.477Z,55.10
2019-01-20T05:14:27.742Z,56.00
2019-01-20T05:16:58.047Z,60.17
2019-01-20T05:19:28.612Z,53.97
2019-01-20T05:21:59.095Z,57.03
2019-01-20T05:24:29.569Z,51.50
2019-01-20T05:27:00.063Z,67.63
2019-01-20T05:29:30.343Z,53.20
2019-01-20T05:32:00.628Z,62.27
2019-01-20T05:34:31.257Z,64.47
2019-01-20T05:37:01.864Z,67.13
2019-01-20T05:39:32.431Z,59.57
2019-01-20T05:42:02.677Z,64.50
2019-01-20T05:44:33.311Z,61.17
2019-01-20T05:47:03.133Z,61.47
2019-01-20T05:49:33.651Z,63.47
2019-01-20T05:52:04.139Z,65.27
2019-01-20T05:54:34.691Z,55.03
2019-01-20T05:57:05.347Z,62.10
2019-01-20T05:59:35.290Z,58.83
2019-01-20T06:02:06.020Z,67.03
2019-01-20T06:04:36.503Z,64.77
2019-01-20T06:07:06.761Z,64.23
2019-01-20T06:09:37.265Z,64.23
2019-01-20T06:12:07.835Z,63.70
2019-01-20T06:14:38.355Z,62.13
2019-01-20T06:17:08.439Z,57.33
2019-01-20T06:19:39.013Z,62.83
2019-01-20T06:22:09.493Z,59.20
2019-01-20T06:24:40.631Z,59.10
2019-01-20T06:27:29.857Z,62.37
2019-01-20T06:30:00.533Z,60.40
2019-01-20T06:32:30.799Z,66.97
2019-01-20T06:35:01.399Z,68.27
2019-01-20T06:37:31.961Z,67.53
2019-01-20T06:40:02.560Z,69.33
2019-01-20T06:42:33.219Z,60.73
2019-01-20T06:45:03.063Z,61.00
2019-01-20T06:47:33.701Z,61.87
2019-01-20T06:50:04.795Z,65.20
2019-01-20T06:52:35.441Z,61.87
2019-01-20T06:55:06.265Z,57.90
2019-01-20T06:57:36.799Z,54.50
2019-01-20T07:00:09.855Z,60.87
2019-01-20T07:02:40.018Z,61.90
2019-01-20T07:05:10.491Z,60.90
2019-01-20T07:07:40.715Z,66.07
2019-01-20T07:10:11.303Z,64.77
2019-01-20T07:12:41.838Z,53.90
2019-01-20T07:15:15.065Z,57.83
2019-01-20T07:17:45.337Z,59.47
2019-01-20T07:20:16.263Z,56.03
2019-01-20T07:22:46.463Z,67.13
2019-01-20T07:25:16.781Z,54.10
2019-01-20T07:27:47.454Z,56.63
2019-01-20T07:30:19.597Z,59.33
2019-01-20T07:32:50.361Z,48.57
2019-01-20T07:35:21.119Z,53.40
2019-01-20T07:37:52.147Z,61.60
2019-01-20T07:40:24.232Z,59.47
2019-01-20T07:42:54.207Z,60.07
2019-01-20T07:45:24.888Z,55.33
2019-01-20T07:47:55.160Z,63.70
2019-01-20T07:50:27.174Z,58.20
2019-01-20T07:52:57.419Z,63.73
2019-01-20T07:55:27.649Z,60.80
2019-01-20T07:57:58.002Z,61.10
2019-01-20T08:00:28.515Z,66.60
2019-01-20T08:02:58.763Z,63.10
2019-01-20T08:05:29.413Z,62.47
2019-01-20T08:08:00.015Z,60.57
2019-01-20T08:10:31.422Z,62.07
2019-01-20T08:13:02.082Z,57.37
2019-01-20T08:15:32.297Z,68.50
2019-01-20T08:18:02.264Z,52.10
2019-01-20T08:20:32.868Z,62.57
2019-01-20T08:23:03.503Z,63.70
2019-01-20T08:25:33.849Z,56.07
2019-01-20T08:28:04.429Z,62.50
2019-01-20T08:30:34.597Z,67.37
2019-01-20T08:33:04.529Z,58.70
2019-01-20T08:35:35.027Z,58.67
2019-01-20T08:38:05.466Z,57.63
2019-01-20T08:40:35.314Z,53.73
2019-01-20T08:43:05.731Z,64.27
2019-01-20T08:45:58.461Z,59.93
2019-01-20T08:48:28.770Z,60.90
2019-01-20T08:50:59.219Z,54.50
2019-01-20T08:53:29.046Z,58.93
2019-01-20T08:55:59.556Z,60.00
2019-01-20T08:58:30.053Z,62.70
2019-01-20T09:01:00.719Z,62.43
2019-01-20T09:03:31.293Z,62.80
2019-01-20T09:06:01.857Z,51.33
2019-01-20T09:08:32.205Z,54.53
2019-01-20T09:11:02.841Z,59.00
2019-01-20T09:13:39.689Z,62.83
2019-01-20T09:16:05.763Z,62.27
2019-01-20T09:18:36.067Z,63.30
2019-01-20T09:21:07.556Z,61.53
2019-01-20T09:23:38.221Z,64.97
2019-01-20T09:26:08.519Z,61.90
2019-01-20T09:28:38.336Z,59.10
2019-01-20T09:31:30.098Z,62.53
2019-01-20T09:34:00.072Z,58.93
2019-01-20T09:36:30.034Z,55.67
2019-01-20T09:39:01.294Z,54.67
2019-01-20T09:41:31.977Z,57.10
2019-01-20T09:44:02.636Z,56.53
2019-01-20T09:46:33.225Z,53.00
2019-01-20T09:49:03.864Z,62.43
2019-01-20T09:51:34.562Z,58.37
2019-01-20T09:54:05.163Z,55.07
2019-01-20T09:56:35.799Z,58.83
2019-01-20T09:59:06.557Z,55.47
2019-01-20T10:01:37.027Z,62.27
2019-01-20T10:04:07.745Z,66.53
2019-01-20T10:06:38.181Z,60.10
2019-01-20T10:09:09.926Z,64.80
2019-01-20T10:11:40.695Z,65.37
2019-01-20T10:14:11.594Z,63.57
2019-01-20T10:16:42.363Z,61.97
2019-01-20T10:19:12.845Z,62.50
2019-01-20T10:21:43.412Z,51.63
2019-01-20T10:24:13.832Z,52.47
2019-01-20T10:26:45.145Z,53.30
2019-01-20T10:29:31.671Z,48.90
2019-01-20T10:32:02.483Z,56.47
2019-01-20T10:34:33.656Z,58.33
2019-01-20T10:37:14.760Z,55.43
2019-01-20T10:39:49.664Z,42.50
2019-01-20T10:42:41.246Z,47.30
2019-01-20T10:45:12.693Z,67.13
2019-01-20T10:47:43.337Z,62.07
2019-01-20T10:50:14.048Z,56.00
2019-01-20T10:52:44.821Z,62.00
2019-01-20T10:55:15.435Z,64.73
2019-01-20T10:57:46.123Z,68.00
2019-01-20T11:00:22.713Z,48.27
2019-01-20T11:02:53.579Z,47.97
2019-01-20T11:05:25.046Z,56.57
2019-01-20T11:07:56.621Z,51.00
2019-01-20T11:10:27.263Z,58.23
2019-01-20T11:12:58.189Z,56.43
2019-01-20T11:15:29.859Z,55.60
2019-01-20T11:18:00.439Z,55.30
2019-01-20T11:20:30.099Z,51.03
2019-01-20T11:23:00.742Z,55.07
2019-01-20T11:25:33.904Z,58.57
2019-01-20T11:28:04.668Z,56.80
2019-01-20T11:30:35.638Z,50.17
2019-01-20T11:33:06.626Z,52.07
2019-01-20T11:35:37.365Z,55.53
2019-01-20T11:38:09.421Z,53.87
2019-01-20T11:40:59.191Z,49.13
2019-01-20T11:43:29.707Z,53.97
2019-01-20T11:46:00.416Z,44.70
2019-01-20T11:48:30.610Z,51.77
2019-01-20T11:51:00.952Z,62.50
2019-01-20T11:53:31.393Z,61.63
2019-01-20T11:56:01.631Z,55.53
2019-01-20T11:58:32.079Z,65.73
2019-01-20T12:01:02.758Z,47.13
2019-01-20T12:03:33.313Z,58.73
2019-01-20T12:06:03.791Z,57.77
2019-01-20T12:08:34.447Z,58.97
2019-01-20T12:11:05.069Z,75.30
2019-01-20T12:13:35.793Z,67.17
2019-01-20T12:16:06.206Z,67.67
2019-01-20T12:18:36.187Z,61.67
2019-01-20T12:21:06.157Z,63.80
2019-01-20T12:23:36.717Z,63.53
2019-01-20T12:26:07.332Z,69.90
2019-01-20T12:28:38.052Z,71.37
2019-01-20T12:31:08.339Z,79.77
2019-01-20T12:33:38.867Z,91.97
2019-01-20T12:36:08.960Z,79.57
2019-01-20T12:38:39.320Z,102.37
2019-01-20T12:41:10.354Z,98.47
2019-01-20T12:43:40.388Z,91.70
2019-01-20T12:46:11.117Z,92.20
2019-01-20T12:48:41.431Z,73.13
2019-01-20T12:51:12.505Z,66.30
2019-01-20T12:53:43.111Z,54.47
2019-01-20T12:56:13.641Z,50.03
2019-01-20T12:58:44.226Z,63.07
2019-01-20T13:01:14.577Z,58.03
2019-01-20T13:03:44.944Z,51.60
2019-01-20T13:06:15.678Z,46.07
2019-01-20T13:08:46.147Z,56.87
2019-01-20T13:11:16.802Z,55.07
2019-01-20T13:13:47.491Z,58.73
2019-01-20T13:16:18.048Z,60.57
2019-01-20T13:18:48.728Z,59.60
2019-01-20T13:21:20.227Z,60.90
2019-01-20T13:23:50.875Z,52.43
2019-01-20T13:26:21.371Z,63.67
2019-01-20T13:28:51.912Z,61.33
2019-01-20T13:31:22.115Z,57.57
2019-01-20T13:33:52.640Z,66.20
2019-01-20T13:36:23.198Z,62.97
2019-01-20T13:38:53.733Z,43.07
2019-01-20T13:41:29.227Z,54.63
2019-01-20T13:43:59.940Z,61.27
2019-01-20T13:46:30.671Z,52.87
2019-01-20T13:49:01.319Z,54.73
2019-01-20T13:51:31.590Z,57.73
2019-01-20T13:54:02.168Z,56.33
2019-01-20T13:56:32.703Z,57.27
2019-01-20T13:59:03.469Z,57.43
2019-01-20T14:01:33.983Z,60.13
2019-01-20T14:04:04.239Z,63.87
2019-01-20T14:06:34.904Z,52.53
2019-01-20T14:09:08.906Z,54.33
2019-01-20T14:11:39.531Z,54.97
2019-01-20T14:14:10.147Z,69.87
2019-01-20T14:16:40.818Z,66.87
2019-01-20T14:19:11.393Z,69.97
2019-01-20T14:21:41.938Z,61.33
2019-01-20T14:24:12.294Z,53.93
2019-01-20T14:26:42.632Z,55.70
2019-01-20T14:29:12.814Z,73.43
2019-01-20T14:31:43.081Z,64.50
2019-01-20T14:34:13.596Z,64.10
2019-01-20T14:36:44.150Z,66.30
2019-01-20T14:39:14.462Z,61.40
2019-01-20T14:41:44.379Z,60.63
2019-01-20T14:44:14.549Z,63.93
2019-01-20T14:46:46.278Z,69.07
2019-01-20T14:49:16.787Z,66.40
2019-01-20T14:51:49.369Z,65.10
2019-01-20T14:54:20.114Z,65.80
2019-01-20T14:56:50.337Z,66.00
2019-01-20T14:59:20.554Z,55.27
2019-01-20T15:01:50.471Z,72.77
2019-01-20T15:04:20.972Z,67.07
2019-01-20T15:06:51.540Z,60.60
2019-01-20T15:09:22.119Z,69.80
2019-01-20T15:11:52.721Z,56.67
2019-01-20T15:14:23.294Z,68.60
2019-01-20T15:16:53.670Z,70.07
2019-01-20T15:19:23.857Z,61.03
2019-01-20T15:21:54.123Z,50.77
2019-01-20T15:24:25.105Z,71.40
2019-01-20T15:26:55.431Z,61.07
2019-01-20T15:29:25.857Z,56.90
2019-01-20T15:31:56.413Z,66.13
2019-01-20T15:34:26.952Z,70.10
2019-01-20T15:36:58.822Z,69.00
2019-01-20T15:39:29.399Z,67.97
2019-01-20T15:41:59.591Z,65.77
2019-01-20T15:44:30.068Z,65.30
2019-01-20T15:47:00.394Z,61.57
2019-01-20T15:49:30.664Z,63.70
2019-01-20T15:52:01.310Z,68.23
2019-01-20T15:54:31.436Z,63.63
2019-01-20T15:57:01.993Z,64.20
2019-01-20T15:59:32.493Z,67.67
2019-01-20T16:02:03.074Z,67.03
2019-01-20T16:04:33.522Z,69.33
2019-01-20T16:07:04.165Z,67.87
2019-01-20T16:09:34.446Z,66.13
2019-01-20T16:12:04.350Z,70.67
2019-01-20T16:14:34.900Z,69.80
2019-01-20T16:17:05.550Z,67.77
2019-01-20T16:19:36.114Z,68.10
2019-01-20T16:22:06.464Z,67.87
2019-01-20T16:24:55.312Z,78.37
2019-01-20T16:27:26.051Z,70.97
2019-01-20T16:29:58.143Z,54.90
2019-01-20T16:32:28.747Z,70.10
2019-01-20T16:34:59.313Z,64.10
2019-01-20T16:37:29.470Z,59.60
2019-01-20T16:39:59.434Z,67.07
2019-01-20T16:42:29.688Z,75.70
2019-01-20T16:45:00.282Z,71.17
2019-01-20T16:47:30.886Z,74.87
2019-01-20T16:50:01.643Z,74.03
2019-01-20T16:52:32.226Z,63.80
2019-01-20T16:55:02.526Z,71.40
2019-01-20T16:57:32.776Z,71.90
2019-01-20T17:00:03.400Z,69.23
2019-01-20T17:02:34.037Z,72.33
2019-01-20T17:05:05.190Z,57.13
2019-01-20T17:07:35.701Z,62.60
2019-01-20T17:10:08.216Z,77.23
2019-01-20T17:12:38.853Z,79.33
2019-01-20T17:15:11.580Z,73.93
2019-01-20T17:17:41.864Z,65.03
2019-01-20T17:20:11.823Z,68.17
2019-01-20T17:22:41.768Z,71.77
2019-01-20T17:25:12.611Z,85.00
2019-01-20T17:27:43.086Z,79.30
2019-01-20T17:30:16.071Z,71.67
2019-01-20T17:32:46.630Z,76.37
2019-01-20T17:35:16.921Z,80.70
2019-01-20T17:37:46.982Z,81.03
2019-01-20T17:40:24.547Z,83.00
2019-01-20T17:42:55.092Z,67.60
2019-01-20T17:45:27.342Z,69.17
2019-01-20T17:47:57.641Z,79.83
2019-01-20T17:50:33.048Z,100.63
2019-01-20T17:53:04.108Z,68.67
2019-01-20T17:55:34.541Z,65.33
2019-01-20T17:58:05.377Z,62.27
2019-01-20T18:00:38.962Z,58.27
2019-01-20T18:03:09.901Z,55.13
2019-01-20T18:05:40.572Z,55.23
2019-01-20T18:08:11.124Z,59.87
2019-01-20T18:10:41.409Z,49.50
2019-01-20T18:13:11.775Z,57.23
2019-01-20T18:15:42.620Z,56.47
2019-01-20T18:18:13.288Z,70.07
2019-01-20T18:20:43.923Z,84.87
2019-01-20T18:23:14.150Z,83.03
2019-01-20T18:25:43.806Z,82.03
2019-01-20T18:28:14.450Z,67.23
2019-01-20T18:30:44.522Z,79.57
2019-01-20T18:33:15.269Z,84.27
2019-01-20T18:35:45.483Z,72.90
2019-01-20T18:38:16.111Z,79.30
2019-01-20T18:40:46.372Z,118.47
2019-01-20T18:43:16.799Z,120.13
2019-01-20T18:45:47.286Z,117.77
2019-01-20T18:48:17.790Z,109.40
2019-01-20T18:50:48.154Z,120.00
2019-01-20T18:53:18.738Z,142.53
2019-01-20T18:55:49.012Z,125.73
2019-01-20T18:58:19.774Z,142.67
2019-01-20T19:00:52.130Z,141.33
2019-01-20T19:03:22.660Z,118.00
2019-01-20T19:05:53.315Z,124.93
2019-01-20T19:08:23.578Z,108.87
2019-01-20T19:10:53.440Z,84.63
2019-01-20T19:13:24.263Z,86.80
2019-01-20T19:15:55.358Z,72.73
2019-01-20T19:18:25.552Z,65.57
2019-01-20T19:20:56.526Z,62.87
2019-01-20T19:23:27.582Z,59.77
2019-01-20T19:25:58.054Z,72.60
2019-01-20T19:28:28.639Z,77.47
2019-01-20T19:30:59.256Z,72.17
2019-01-20T19:33:30.164Z,58.43
2019-01-20T19:36:00.366Z,52.73
2019-01-20T19:38:30.882Z,44.93
2019-01-20T19:41:01.563Z,57.00
2019-01-20T19:43:31.950Z,60.30
2019-01-20T19:46:02.719Z,63.40
2019-01-20T19:48:33.314Z,65.93
2019-01-20T19:51:03.654Z,75.70
2019-01-20T19:53:34.069Z,69.67
2019-01-20T19:56:04.440Z,67.00
2019-01-20T19:58:34.991Z,77.53
2019-01-20T20:01:05.238Z,77.67
2019-01-20T20:03:42.038Z,62.60
2019-01-20T20:06:12.898Z,43.10
2019-01-20T20:08:43.184Z,61.07
2019-01-20T20:11:13.993Z,74.43
2019-01-20T20:13:44.733Z,86.30
2019-01-20T20:16:15.350Z,76.90
2019-01-20T20:18:45.544Z,79.63
2019-01-20T20:21:15.824Z,86.83
2019-01-20T20:24:04.768Z,83.17
2019-01-20T20:26:35.112Z,54.60
2019-01-20T20:29:05.948Z,65.67
2019-01-20T20:31:36.606Z,54.43
2019-01-20T20:34:06.468Z,54.20
2019-01-20T20:36:37.108Z,72.53
2019-01-20T20:39:10.071Z,71.80
2019-01-20T20:41:40.698Z,63.67
2019-01-20T20:44:10.930Z,61.80
2019-01-20T20:46:40.906Z,58.70
2019-01-20T20:49:11.448Z,78.83
2019-01-20T20:51:41.653Z,66.10
2019-01-20T20:54:12.256Z,61.43
2019-01-20T20:56:42.494Z,67.63
2019-01-20T20:59:13.225Z,77.13
2019-01-20T21:01:43.730Z,75.20
2019-01-20T21:04:14.383Z,65.80
2019-01-20T21:06:44.904Z,60.43
2019-01-20T21:09:15.503Z,48.83
2019-01-20T21:11:45.779Z,44.20
2019-01-20T21:14:16.284Z,41.63
2019-01-20T21:16:46.236Z,53.17
2019-01-20T21:19:16.450Z,53.93
2019-01-20T21:21:47.106Z,45.90
2019-01-20T21:24:17.624Z,52.30
2019-01-20T21:26:47.958Z,47.77
2019-01-20T21:29:18.319Z,52.33
2019-01-20T21:31:49.026Z,47.93
2019-01-20T21:34:38.358Z,49.57
2019-01-20T21:37:08.711Z,52.90
2019-01-20T21:39:39.190Z,45.93
2019-01-20T21:42:09.756Z,48.97
2019-01-20T21:44:40.095Z,49.47
2019-01-20T21:47:10.646Z,44.50
2019-01-20T21:49:41.154Z,47.17
2019-01-20T21:52:11.658Z,43.90
2019-01-20T21:54:41.494Z,48.00
2019-01-20T21:57:12.156Z,39.73
2019-01-20T21:59:42.458Z,43.53
2019-01-20T22:02:12.348Z,33.67
2019-01-20T22:04:42.602Z,44.70
2019-01-20T22:07:13.143Z,35.63
2019-01-20T22:09:43.624Z,44.40
2019-01-20T22:12:14.154Z,33.33
2019-01-20T22:14:44.746Z,42.33
2019-01-20T22:17:14.890Z,43.57
2019-01-20T22:19:45.543Z,44.20
2019-01-20T22:22:15.853Z,43.13
2019-01-20T22:24:46.412Z,43.27
2019-01-20T22:27:17.032Z,38.50
2019-01-20T22:29:47.702Z,39.57
2019-01-20T22:32:17.633Z,36.83
2019-01-20T22:34:47.930Z,38.70
2019-01-20T22:37:18.607Z,40.70
2019-01-20T22:39:49.239Z,33.97
2019-01-20T22:42:19.448Z,35.63
2019-01-20T22:44:49.667Z,40.27
2019-01-20T22:47:20.006Z,40.53
2019-01-20T22:49:50.024Z,38.13
2019-01-20T22:52:20.622Z,40.63
2019-01-20T22:54:51.263Z,36.73
2019-01-20T22:57:21.646Z,40.37
2019-01-20T22:59:51.534Z,37.00
2019-01-20T23:02:21.860Z,34.77
2019-01-20T23:04:52.484Z,37.60
2019-01-20T23:07:24.046Z,46.03
2019-01-20T23:09:54.553Z,36.57
2019-01-20T23:12:24.910Z,36.77
2019-01-20T23:14:55.449Z,35.23
2019-01-20T23:17:25.640Z,37.20
2019-01-20T23:19:56.239Z,33.33
2019-01-20T23:22:45.455Z,37.33
2019-01-20T23:25:15.688Z,28.10
2019-01-20T23:27:46.469Z,31.17
2019-01-20T23:30:17.040Z,32.93
2019-01-20T23:32:47.374Z,32.03
2019-01-20T23:35:18.070Z,32.97
2019-01-20T23:37:48.504Z,35.43
2019-01-20T23:40:19.292Z,34.47
2019-01-20T23:42:49.510Z,31.83
2019-01-20T23:45:19.687Z,33.13
2019-01-20T23:47:50.067Z,33.23
2019-01-20T23:50:20.810Z,32.30
2019-01-20T23:52:51.271Z,34.37
2019-01-20T23:55:21.888Z,30.87
2019-01-20T23:57:52.343Z,31.17
